sensor_id;sensor_type;location;lat;lon;timestamp;pressure;altitude;pressure_sealevel;temperature;humidity
41624;BME280;27319;50.306;18.926;2023-04-07T00:02:26;98118.97;;;1.63;93.15
41624;BME280;27319;50.306;18.926;2023-04-07T00:06:26;98115.84;;;1.69;91.80
41624;BME280;27319;50.306;18.926;2023-04-07T00:10:27;98121.13;;;1.69;92.74
41624;BME280;27319;50.306;18.926;2023-04-07T00:14:28;98119.09;;;1.72;91.31
41624;BME280;27319;50.306;18.926;2023-04-07T00:18:29;98111.84;;;1.63;93.22
41624;BME280;27319;50.306;18.926;2023-04-07T00:22:29;98108.28;;;1.64;93.32
41624;BME280;27319;50.306;18.926;2023-04-07T00:26:30;98107.44;;;1.75;93.33
41624;BME280;27319;50.306;18.926;2023-04-07T00:30:31;98087.81;;;1.66;92.79
41624;BME280;27319;50.306;18.926;2023-04-07T00:34:31;98093.81;;;1.68;92.52
41624;BME280;27319;50.306;18.926;2023-04-07T00:38:32;98085.41;;;1.63;94.15
41624;BME280;27319;50.306;18.926;2023-04-07T00:42:13;98094.56;;;1.70;92.45
41624;BME280;27319;50.306;18.926;2023-04-07T00:45:14;98086.38;;;1.62;93.38
41624;BME280;27319;50.306;18.926;2023-04-07T00:48:15;98085.19;;;1.66;92.75
41624;BME280;27319;50.306;18.926;2023-04-07T00:51:18;98078.31;;;1.64;93.67
41624;BME280;27319;50.306;18.926;2023-04-07T00:54:21;98076.16;;;1.69;93.15
41624;BME280;27319;50.306;18.926;2023-04-07T00:57:22;98079.53;;;1.71;92.64
41624;BME280;27319;50.306;18.926;2023-04-07T01:00:24;98073.41;;;1.70;91.36
41624;BME280;27319;50.306;18.926;2023-04-07T01:03:31;98072.16;;;1.63;92.68
41624;BME280;27319;50.306;18.926;2023-04-07T01:06:35;98071.00;;;1.78;91.04
41624;BME280;27319;50.306;18.926;2023-04-07T01:09:45;98069.06;;;1.69;92.57
41624;BME280;27319;50.306;18.926;2023-04-07T01:16:56;98063.75;;;1.69;94.63
41624;BME280;27319;50.306;18.926;2023-04-07T01:21:05;98056.56;;;1.71;93.53
41624;BME280;27319;50.306;18.926;2023-04-07T01:32:23;98055.84;;;1.58;94.70
41624;BME280;27319;50.306;18.926;2023-04-07T01:36:25;98058.03;;;1.64;94.21
41624;BME280;27319;50.306;18.926;2023-04-07T01:40:06;98060.28;;;1.58;94.25
41624;BME280;27319;50.306;18.926;2023-04-07T01:43:08;98052.44;;;1.56;94.99
41624;BME280;27319;50.306;18.926;2023-04-07T01:46:29;98053.31;;;1.68;93.59
41624;BME280;27319;50.306;18.926;2023-04-07T01:50:30;98052.94;;;1.61;94.20
41624;BME280;27319;50.306;18.926;2023-04-07T01:54:31;98049.81;;;1.56;95.65
41624;BME280;27319;50.306;18.926;2023-04-07T01:58:31;98039.84;;;1.60;94.25
41624;BME280;27319;50.306;18.926;2023-04-07T02:02:33;98044.03;;;1.62;93.28
41624;BME280;27319;50.306;18.926;2023-04-07T02:06:34;98051.16;;;1.62;93.74
41624;BME280;27319;50.306;18.926;2023-04-07T02:10:35;98042.97;;;1.65;92.72
41624;BME280;27319;50.306;18.926;2023-04-07T02:14:35;98035.75;;;1.56;95.07
41624;BME280;27319;50.306;18.926;2023-04-07T02:18:36;98049.59;;;1.59;94.13
41624;BME280;27319;50.306;18.926;2023-04-07T02:22:37;98042.16;;;1.64;93.82
41624;BME280;27319;50.306;18.926;2023-04-07T02:26:37;98056.09;;;1.66;93.14
41624;BME280;27319;50.306;18.926;2023-04-07T02:30:38;98057.63;;;1.58;95.44
41624;BME280;27319;50.306;18.926;2023-04-07T02:34:39;98049.34;;;1.62;94.95
41624;BME280;27319;50.306;18.926;2023-04-07T02:38:40;98049.47;;;1.72;93.78
41624;BME280;27319;50.306;18.926;2023-04-07T02:42:21;98051.97;;;1.62;94.53
41624;BME280;27319;50.306;18.926;2023-04-07T02:45:42;98059.34;;;1.81;93.89
41624;BME280;27319;50.306;18.926;2023-04-07T02:49:42;98047.06;;;1.69;94.58
41624;BME280;27319;50.306;18.926;2023-04-07T02:53:43;98037.94;;;1.62;94.73
41624;BME280;27319;50.306;18.926;2023-04-07T02:57:44;98038.03;;;1.60;95.40
41624;BME280;27319;50.306;18.926;2023-04-07T03:01:45;98035.16;;;1.63;94.12
41624;BME280;27319;50.306;18.926;2023-04-07T03:05:46;98036.09;;;1.51;96.37
41624;BME280;27319;50.306;18.926;2023-04-07T03:09:46;98036.38;;;1.59;96.04
41624;BME280;27319;50.306;18.926;2023-04-07T03:13:47;98027.44;;;1.49;95.20
41624;BME280;27319;50.306;18.926;2023-04-07T03:17:48;98031.78;;;1.50;94.20
41624;BME280;27319;50.306;18.926;2023-04-07T03:21:49;98034.06;;;1.66;94.11
41624;BME280;27319;50.306;18.926;2023-04-07T03:25:50;98029.84;;;1.63;94.78
41624;BME280;27319;50.306;18.926;2023-04-07T03:29:52;98026.28;;;1.64;95.71
41624;BME280;27319;50.306;18.926;2023-04-07T03:33:51;98029.88;;;1.74;95.07
41624;BME280;27319;50.306;18.926;2023-04-07T03:37:52;98022.41;;;1.68;95.45
41624;BME280;27319;50.306;18.926;2023-04-07T03:41:33;98018.56;;;1.72;94.00
41624;BME280;27319;50.306;18.926;2023-04-07T03:44:34;98011.09;;;1.55;96.33
41624;BME280;27319;50.306;18.926;2023-04-07T03:47:35;98018.69;;;1.60;95.96
41624;BME280;27319;50.306;18.926;2023-04-07T03:50:38;98019.66;;;1.70;94.75
41624;BME280;27319;50.306;18.926;2023-04-07T03:53:39;98023.25;;;1.69;94.83
41624;BME280;27319;50.306;18.926;2023-04-07T03:56:40;98026.63;;;1.71;94.90
41624;BME280;27319;50.306;18.926;2023-04-07T03:59:41;98032.03;;;1.69;95.29
41624;BME280;27319;50.306;18.926;2023-04-07T04:02:42;98022.28;;;1.59;95.51
41624;BME280;27319;50.306;18.926;2023-04-07T04:05:43;98023.00;;;1.72;93.61
41624;BME280;27319;50.306;18.926;2023-04-07T04:09:04;98029.53;;;1.79;94.52
41624;BME280;27319;50.306;18.926;2023-04-07T04:13:04;98030.25;;;1.81;93.47
41624;BME280;27319;50.306;18.926;2023-04-07T04:17:05;98027.97;;;1.87;93.86
41624;BME280;27319;50.306;18.926;2023-04-07T04:21:06;98027.22;;;1.74;94.22
41624;BME280;27319;50.306;18.926;2023-04-07T04:25:07;98026.63;;;1.82;94.13
41624;BME280;27319;50.306;18.926;2023-04-07T04:29:08;98029.03;;;1.74;94.90
41624;BME280;27319;50.306;18.926;2023-04-07T04:33:09;98031.06;;;1.59;96.86
41624;BME280;27319;50.306;18.926;2023-04-07T04:37:09;98037.06;;;1.61;95.85
41624;BME280;27319;50.306;18.926;2023-04-07T04:40:50;98033.81;;;1.58;96.22
41624;BME280;27319;50.306;18.926;2023-04-07T04:43:51;98034.22;;;1.64;95.55
41624;BME280;27319;50.306;18.926;2023-04-07T04:46:52;98029.28;;;1.71;96.15
41624;BME280;27319;50.306;18.926;2023-04-07T04:49:53;98030.09;;;1.60;95.74
41624;BME280;27319;50.306;18.926;2023-04-07T04:52:54;98032.88;;;1.59;95.52
41624;BME280;27319;50.306;18.926;2023-04-07T04:55:55;98034.91;;;1.55;97.33
41624;BME280;27319;50.306;18.926;2023-04-07T04:58:56;98036.59;;;1.56;96.06
41624;BME280;27319;50.306;18.926;2023-04-07T05:02:16;98035.16;;;1.74;95.88
41624;BME280;27319;50.306;18.926;2023-04-07T05:06:17;98045.25;;;1.69;94.75
41624;BME280;27319;50.306;18.926;2023-04-07T05:10:18;98049.34;;;1.62;95.85
41624;BME280;27319;50.306;18.926;2023-04-07T05:14:03;98046.81;;;1.72;96.48
41624;BME280;27319;50.306;18.926;2023-04-07T05:17:24;98041.41;;;1.62;96.20
41624;BME280;27319;50.306;18.926;2023-04-07T05:21:24;98036.84;;;1.64;96.57
41624;BME280;27319;50.306;18.926;2023-04-07T05:25:25;98047.19;;;1.78;96.07
41624;BME280;27319;50.306;18.926;2023-04-07T05:29:06;98050.56;;;1.58;97.25
41624;BME280;27319;50.306;18.926;2023-04-07T05:32:27;98046.09;;;1.59;97.04
41624;BME280;27319;50.306;18.926;2023-04-07T05:36:28;98039.34;;;1.66;95.98
41624;BME280;27319;50.306;18.926;2023-04-07T05:40:09;98040.09;;;1.68;95.65
41624;BME280;27319;50.306;18.926;2023-04-07T05:43:10;98032.78;;;1.71;94.68
41624;BME280;27319;50.306;18.926;2023-04-07T05:46:11;98042.88;;;1.77;93.93
41624;BME280;27319;50.306;18.926;2023-04-07T05:49:13;98042.41;;;1.83;94.27
41624;BME280;27319;50.306;18.926;2023-04-07T05:52:14;98039.75;;;1.72;96.17
41624;BME280;27319;50.306;18.926;2023-04-07T05:55:15;98039.03;;;1.81;95.72
41624;BME280;27319;50.306;18.926;2023-04-07T05:58:36;98052.97;;;1.83;94.42
41624;BME280;27319;50.306;18.926;2023-04-07T06:02:36;98045.63;;;1.76;94.91
41624;BME280;27319;50.306;18.926;2023-04-07T06:06:37;98050.34;;;1.83;95.14
41624;BME280;27319;50.306;18.926;2023-04-07T06:10:38;98055.38;;;1.75;96.17
41624;BME280;27319;50.306;18.926;2023-04-07T06:14:38;98054.28;;;1.78;96.90
41624;BME280;27319;50.306;18.926;2023-04-07T06:18:39;98057.41;;;1.83;93.91
41624;BME280;27319;50.306;18.926;2023-04-07T06:22:40;98056.34;;;1.85;96.32
41624;BME280;27319;50.306;18.926;2023-04-07T06:26:41;98045.06;;;1.94;94.24
41624;BME280;27319;50.306;18.926;2023-04-07T06:30:42;98048.03;;;2.01;94.56
41624;BME280;27319;50.306;18.926;2023-04-07T06:34:43;98042.16;;;1.97;94.27
41624;BME280;27319;50.306;18.926;2023-04-07T06:38:43;98039.38;;;1.88;96.46
41624;BME280;27319;50.306;18.926;2023-04-07T06:42:24;98043.59;;;1.90;95.02
41624;BME280;27319;50.306;18.926;2023-04-07T06:45:25;98040.94;;;1.79;95.52
41624;BME280;27319;50.306;18.926;2023-04-07T06:48:26;98029.41;;;1.91;95.67
41624;BME280;27319;50.306;18.926;2023-04-07T06:51:47;98032.41;;;1.87;96.17
41624;BME280;27319;50.306;18.926;2023-04-07T06:55:48;98037.59;;;1.88;95.74
41624;BME280;27319;50.306;18.926;2023-04-07T06:59:48;98043.22;;;2.06;95.07
41624;BME280;27319;50.306;18.926;2023-04-07T07:03:49;98052.38;;;1.80;97.12
41624;BME280;27319;50.306;18.926;2023-04-07T07:07:50;98065.25;;;1.84;97.76
41624;BME280;27319;50.306;18.926;2023-04-07T07:11:51;98047.22;;;1.89;97.73
41624;BME280;27319;50.306;18.926;2023-04-07T07:15:52;98056.94;;;2.00;95.51
41624;BME280;27319;50.306;18.926;2023-04-07T07:19:53;98060.44;;;2.00;96.86
41624;BME280;27319;50.306;18.926;2023-04-07T07:23:53;98062.13;;;2.12;95.42
41624;BME280;27319;50.306;18.926;2023-04-07T07:27:54;98061.91;;;2.04;97.31
41624;BME280;27319;50.306;18.926;2023-04-07T07:31:55;98063.09;;;2.22;97.04
41624;BME280;27319;50.306;18.926;2023-04-07T07:35:56;98068.03;;;2.16;97.25
41624;BME280;27319;50.306;18.926;2023-04-07T07:39:44;98072.25;;;2.18;97.64
41624;BME280;27319;50.306;18.926;2023-04-07T07:42:45;98072.22;;;2.07;97.58
41624;BME280;27319;50.306;18.926;2023-04-07T07:45:46;98081.75;;;2.10;97.81
41624;BME280;27319;50.306;18.926;2023-04-07T07:48:47;98083.19;;;2.14;95.19
41624;BME280;27319;50.306;18.926;2023-04-07T07:51:48;98079.56;;;2.15;96.25
41624;BME280;27319;50.306;18.926;2023-04-07T07:54:50;98090.53;;;2.10;94.79
41624;BME280;27319;50.306;18.926;2023-04-07T07:57:51;98077.66;;;2.28;95.57
41624;BME280;27319;50.306;18.926;2023-04-07T08:00:52;98085.97;;;2.23;95.80
41624;BME280;27319;50.306;18.926;2023-04-07T08:03:52;98094.38;;;2.28;95.85
41624;BME280;27319;50.306;18.926;2023-04-07T08:06:53;98093.63;;;2.26;96.08
41624;BME280;27319;50.306;18.926;2023-04-07T08:09:54;98076.56;;;2.08;96.43
41624;BME280;27319;50.306;18.926;2023-04-07T08:12:55;98079.94;;;2.21;97.57
41624;BME280;27319;50.306;18.926;2023-04-07T08:15:56;98080.19;;;2.07;97.72
41624;BME280;27319;50.306;18.926;2023-04-07T08:18:57;98068.41;;;2.11;97.90
41624;BME280;27319;50.306;18.926;2023-04-07T08:22:18;98063.22;;;2.21;96.44
41624;BME280;27319;50.306;18.926;2023-04-07T08:26:19;98049.00;;;2.22;99.86
41624;BME280;27319;50.306;18.926;2023-04-07T08:30:20;98056.09;;;2.32;98.58
41624;BME280;27319;50.306;18.926;2023-04-07T08:34:21;98058.72;;;2.43;97.32
41624;BME280;27319;50.306;18.926;2023-04-07T08:38:21;98075.69;;;2.30;98.79
41624;BME280;27319;50.306;18.926;2023-04-07T08:42:02;98068.25;;;2.24;98.66
41624;BME280;27319;50.306;18.926;2023-04-07T08:45:05;98079.69;;;2.35;98.45
41624;BME280;27319;50.306;18.926;2023-04-07T08:48:16;98065.00;;;2.31;97.95
41624;BME280;27319;50.306;18.926;2023-04-07T08:51:26;98052.00;;;2.39;96.09
41624;BME280;27319;50.306;18.926;2023-04-07T08:54:27;98068.97;;;2.59;98.71
41624;BME280;27319;50.306;18.926;2023-04-07T08:57:31;98076.78;;;2.49;98.87
41624;BME280;27319;50.306;18.926;2023-04-07T09:00:33;98066.91;;;2.51;97.07
41624;BME280;27319;50.306;18.926;2023-04-07T09:03:34;98063.31;;;2.52;96.49
41624;BME280;27319;50.306;18.926;2023-04-07T09:06:36;98058.72;;;2.54;97.53
41624;BME280;27319;50.306;18.926;2023-04-07T09:09:37;98069.28;;;2.65;98.03
41624;BME280;27319;50.306;18.926;2023-04-07T09:12:38;98070.03;;;2.56;95.70
41624;BME280;27319;50.306;18.926;2023-04-07T09:15:39;98071.34;;;2.62;96.30
41624;BME280;27319;50.306;18.926;2023-04-07T09:18:41;98068.81;;;2.60;96.39
41624;BME280;27319;50.306;18.926;2023-04-07T09:21:50;98066.88;;;2.73;96.73
41624;BME280;27319;50.306;18.926;2023-04-07T09:24:51;98053.53;;;2.53;97.72
41624;BME280;27319;50.306;18.926;2023-04-07T09:27:58;98057.50;;;2.58;97.88
41624;BME280;27319;50.306;18.926;2023-04-07T09:32:02;98056.13;;;2.75;96.08
41624;BME280;27319;50.306;18.926;2023-04-07T09:36:11;98053.63;;;2.73;96.08
41624;BME280;27319;50.306;18.926;2023-04-07T09:40:12;98059.34;;;2.89;95.72
41624;BME280;27319;50.306;18.926;2023-04-07T09:44:13;98048.78;;;2.78;95.83
41624;BME280;27319;50.306;18.926;2023-04-07T09:48:17;98044.56;;;2.76;97.10
41624;BME280;27319;50.306;18.926;2023-04-07T09:52:17;98053.47;;;2.75;98.17
41624;BME280;27319;50.306;18.926;2023-04-07T09:56:19;98046.13;;;2.78;98.59
41624;BME280;27319;50.306;18.926;2023-04-07T10:00:19;98049.28;;;2.72;97.76
41624;BME280;27319;50.306;18.926;2023-04-07T10:04:20;98045.22;;;2.68;100.00
41624;BME280;27319;50.306;18.926;2023-04-07T10:08:21;98041.44;;;2.82;99.13
41624;BME280;27319;50.306;18.926;2023-04-07T10:12:21;98039.31;;;2.65;99.38
41624;BME280;27319;50.306;18.926;2023-04-07T10:16:22;98040.03;;;2.67;100.00
41624;BME280;27319;50.306;18.926;2023-04-07T10:20:23;98043.97;;;2.72;100.00
41624;BME280;27319;50.306;18.926;2023-04-07T10:28:10;98046.63;;;2.72;100.00
41624;BME280;27319;50.306;18.926;2023-04-07T10:32:11;98053.00;;;2.70;100.00
41624;BME280;27319;50.306;18.926;2023-04-07T10:36:24;98044.72;;;2.74;100.00
41624;BME280;27319;50.306;18.926;2023-04-07T10:44:00;98054.50;;;2.94;99.74
41624;BME280;27319;50.306;18.926;2023-04-07T10:51:37;98061.28;;;2.87;98.35
41624;BME280;27319;50.306;18.926;2023-04-07T10:55:46;98053.66;;;3.05;98.86
41624;BME280;27319;50.306;18.926;2023-04-07T11:04:12;98056.06;;;2.97;99.38
41624;BME280;27319;50.306;18.926;2023-04-07T11:08:13;98050.38;;;3.01;99.50
41624;BME280;27319;50.306;18.926;2023-04-07T11:12:23;98055.00;;;2.88;99.47
41624;BME280;27319;50.306;18.926;2023-04-07T11:16:33;98051.81;;;3.05;99.43
41624;BME280;27319;50.306;18.926;2023-04-07T11:20:37;98048.28;;;2.84;100.00
41624;BME280;27319;50.306;18.926;2023-04-07T11:24:32;98044.50;;;2.98;100.00
41624;BME280;27319;50.306;18.926;2023-04-07T11:28:32;98040.75;;;3.00;100.00
41624;BME280;27319;50.306;18.926;2023-04-07T11:32:33;98038.19;;;3.10;100.00
41624;BME280;27319;50.306;18.926;2023-04-07T11:36:37;98032.25;;;3.17;99.70
41624;BME280;27319;50.306;18.926;2023-04-07T11:43:34;98037.75;;;3.25;100.00
41624;BME280;27319;50.306;18.926;2023-04-07T11:46:51;98043.91;;;3.26;100.00
41624;BME280;27319;50.306;18.926;2023-04-07T11:49:52;98029.41;;;3.09;100.00
41624;BME280;27319;50.306;18.926;2023-04-07T11:52:53;98027.00;;;3.06;100.00
41624;BME280;27319;50.306;18.926;2023-04-07T11:56:04;98027.00;;;3.06;100.00
41624;BME280;27319;50.306;18.926;2023-04-07T11:59:07;98035.16;;;3.14;100.00
41624;BME280;27319;50.306;18.926;2023-04-07T12:02:08;98031.72;;;3.23;100.00
41624;BME280;27319;50.306;18.926;2023-04-07T12:05:09;98027.66;;;3.19;100.00
41624;BME280;27319;50.306;18.926;2023-04-07T12:08:10;98027.22;;;3.35;100.00
41624;BME280;27319;50.306;18.926;2023-04-07T12:11:11;98034.03;;;3.48;99.20
41624;BME280;27319;50.306;18.926;2023-04-07T12:14:12;98026.06;;;3.28;100.00
41624;BME280;27319;50.306;18.926;2023-04-07T12:17:24;98018.47;;;3.23;99.44
41624;BME280;27319;50.306;18.926;2023-04-07T12:20:26;98020.03;;;3.26;100.00
41624;BME280;27319;50.306;18.926;2023-04-07T12:23:46;98029.03;;;3.34;100.00
41624;BME280;27319;50.306;18.926;2023-04-07T12:27:47;98040.84;;;3.30;100.00
41624;BME280;27319;50.306;18.926;2023-04-07T12:31:48;98042.97;;;3.36;100.00
41624;BME280;27319;50.306;18.926;2023-04-07T12:35:49;98038.28;;;3.19;99.47
41624;BME280;27319;50.306;18.926;2023-04-07T12:39:50;98048.63;;;3.22;100.00
41624;BME280;27319;50.306;18.926;2023-04-07T12:43:51;98040.03;;;3.30;99.89
41624;BME280;27319;50.306;18.926;2023-04-07T12:47:51;98037.16;;;3.22;100.00
41624;BME280;27319;50.306;18.926;2023-04-07T12:51:52;98048.16;;;3.38;100.00
41624;BME280;27319;50.306;18.926;2023-04-07T12:55:53;98033.22;;;3.16;100.00
41624;BME280;27319;50.306;18.926;2023-04-07T12:59:54;98041.50;;;3.23;100.00
41624;BME280;27319;50.306;18.926;2023-04-07T13:03:55;98037.25;;;3.31;100.00
41624;BME280;27319;50.306;18.926;2023-04-07T13:07:55;98039.38;;;3.37;100.00
41624;BME280;27319;50.306;18.926;2023-04-07T13:11:56;98033.22;;;3.37;100.00
41624;BME280;27319;50.306;18.926;2023-04-07T13:15:57;98035.03;;;3.36;100.00
41624;BME280;27319;50.306;18.926;2023-04-07T13:19:58;98040.94;;;3.40;100.00
41624;BME280;27319;50.306;18.926;2023-04-07T13:23:59;98043.13;;;3.35;100.00
41624;BME280;27319;50.306;18.926;2023-04-07T13:28:00;98037.63;;;3.47;99.38
41624;BME280;27319;50.306;18.926;2023-04-07T13:32:18;98041.53;;;3.43;100.00
41624;BME280;27319;50.306;18.926;2023-04-07T13:36:04;98043.72;;;3.38;100.00
41624;BME280;27319;50.306;18.926;2023-04-07T13:39:45;98045.41;;;3.39;100.00
41624;BME280;27319;50.306;18.926;2023-04-07T13:42:45;98050.47;;;3.42;100.00
41624;BME280;27319;50.306;18.926;2023-04-07T13:45:47;98059.34;;;3.41;100.00
41624;BME280;27319;50.306;18.926;2023-04-07T13:49:08;98048.75;;;3.41;100.00
41624;BME280;27319;50.306;18.926;2023-04-07T13:53:10;98056.41;;;3.55;100.00
41624;BME280;27319;50.306;18.926;2023-04-07T13:57:11;98054.72;;;3.54;100.00
41624;BME280;27319;50.306;18.926;2023-04-07T14:01:12;98064.59;;;3.52;100.00
41624;BME280;27319;50.306;18.926;2023-04-07T14:05:13;98061.97;;;3.52;100.00
41624;BME280;27319;50.306;18.926;2023-04-07T14:09:13;98057.81;;;3.59;100.00
41624;BME280;27319;50.306;18.926;2023-04-07T14:13:14;98056.47;;;3.65;100.00
41624;BME280;27319;50.306;18.926;2023-04-07T14:17:15;98055.38;;;3.67;100.00
41624;BME280;27319;50.306;18.926;2023-04-07T14:21:16;98058.41;;;3.63;100.00
41624;BME280;27319;50.306;18.926;2023-04-07T14:25:17;98060.09;;;3.64;100.00
41624;BME280;27319;50.306;18.926;2023-04-07T14:29:19;98065.72;;;3.70;100.00
41624;BME280;27319;50.306;18.926;2023-04-07T14:33:20;98062.22;;;3.70;100.00
41624;BME280;27319;50.306;18.926;2023-04-07T14:37:20;98067.66;;;3.68;100.00
41624;BME280;27319;50.306;18.926;2023-04-07T14:41:22;98053.41;;;3.69;100.00
41624;BME280;27319;50.306;18.926;2023-04-07T14:45:22;98058.72;;;3.69;100.00
41624;BME280;27319;50.306;18.926;2023-04-07T14:49:23;98052.59;;;3.69;100.00
41624;BME280;27319;50.306;18.926;2023-04-07T14:53:24;98044.47;;;3.70;100.00
41624;BME280;27319;50.306;18.926;2023-04-07T14:57:25;98041.81;;;3.70;100.00
41624;BME280;27319;50.306;18.926;2023-04-07T15:01:26;98044.94;;;3.75;100.00
41624;BME280;27319;50.306;18.926;2023-04-07T15:05:28;98050.13;;;3.77;100.00
41624;BME280;27319;50.306;18.926;2023-04-07T15:09:28;98043.72;;;3.79;100.00
41624;BME280;27319;50.306;18.926;2023-04-07T15:13:28;98052.69;;;3.88;100.00
41624;BME280;27319;50.306;18.926;2023-04-07T15:17:29;98049.06;;;3.89;100.00
41624;BME280;27319;50.306;18.926;2023-04-07T15:21:11;98042.59;;;3.82;100.00
41624;BME280;27319;50.306;18.926;2023-04-07T15:24:12;98053.56;;;3.88;100.00
41624;BME280;27319;50.306;18.926;2023-04-07T15:27:13;98054.38;;;3.89;100.00
41624;BME280;27319;50.306;18.926;2023-04-07T15:30:14;98053.59;;;3.98;100.00
41624;BME280;27319;50.306;18.926;2023-04-07T15:33:15;98051.47;;;3.92;100.00
41624;BME280;27319;50.306;18.926;2023-04-07T15:36:16;98050.38;;;3.94;100.00
41624;BME280;27319;50.306;18.926;2023-04-07T15:39:17;98046.31;;;4.00;100.00
41624;BME280;27319;50.306;18.926;2023-04-07T15:42:18;98055.69;;;3.94;100.00
41624;BME280;27319;50.306;18.926;2023-04-07T15:45:19;98055.81;;;3.93;100.00
41624;BME280;27319;50.306;18.926;2023-04-07T15:48:39;98048.94;;;3.90;100.00
41624;BME280;27319;50.306;18.926;2023-04-07T15:52:40;98055.75;;;3.83;100.00
41624;BME280;27319;50.306;18.926;2023-04-07T15:56:41;98062.91;;;3.92;100.00
41624;BME280;27319;50.306;18.926;2023-04-07T16:00:42;98062.63;;;3.86;100.00
41624;BME280;27319;50.306;18.926;2023-04-07T16:04:43;98057.84;;;3.80;100.00
41624;BME280;27319;50.306;18.926;2023-04-07T16:08:44;98065.19;;;3.76;100.00
41624;BME280;27319;50.306;18.926;2023-04-07T16:12:45;98067.13;;;3.74;100.00
41624;BME280;27319;50.306;18.926;2023-04-07T16:16:45;98069.72;;;3.85;100.00
41624;BME280;27319;50.306;18.926;2023-04-07T16:20:46;98058.41;;;3.83;100.00
41624;BME280;27319;50.306;18.926;2023-04-07T16:24:47;98062.97;;;3.81;100.00
41624;BME280;27319;50.306;18.926;2023-04-07T16:28:47;98064.81;;;3.81;100.00
41624;BME280;27319;50.306;18.926;2023-04-07T16:32:16;98071.91;;;3.80;100.00
41624;BME280;27319;50.306;18.926;2023-04-07T16:35:17;98071.22;;;3.78;100.00
41624;BME280;27319;50.306;18.926;2023-04-07T16:38:18;98077.22;;;3.80;100.00
41624;BME280;27319;50.306;18.926;2023-04-07T16:41:39;98080.41;;;3.74;100.00
41624;BME280;27319;50.306;18.926;2023-04-07T16:45:39;98074.84;;;3.77;100.00
41624;BME280;27319;50.306;18.926;2023-04-07T16:49:40;98085.66;;;3.85;100.00
41624;BME280;27319;50.306;18.926;2023-04-07T16:53:41;98086.41;;;3.76;100.00
41624;BME280;27319;50.306;18.926;2023-04-07T16:57:42;98087.31;;;3.86;100.00
41624;BME280;27319;50.306;18.926;2023-04-07T17:01:43;98097.50;;;3.81;100.00
41624;BME280;27319;50.306;18.926;2023-04-07T17:05:44;98099.03;;;3.84;100.00
41624;BME280;27319;50.306;18.926;2023-04-07T17:09:45;98097.25;;;3.84;100.00
41624;BME280;27319;50.306;18.926;2023-04-07T17:13:45;98096.84;;;3.89;100.00
41624;BME280;27319;50.306;18.926;2023-04-07T17:17:46;98100.88;;;3.83;100.00
41624;BME280;27319;50.306;18.926;2023-04-07T17:21:47;98102.56;;;3.84;100.00
41624;BME280;27319;50.306;18.926;2023-04-07T17:25:48;98105.44;;;3.81;100.00
41624;BME280;27319;50.306;18.926;2023-04-07T17:29:49;98111.22;;;3.86;100.00
41624;BME280;27319;50.306;18.926;2023-04-07T17:33:50;98106.88;;;3.85;100.00
41624;BME280;27319;50.306;18.926;2023-04-07T17:37:51;98113.34;;;3.92;100.00
41624;BME280;27319;50.306;18.926;2023-04-07T17:41:32;98127.25;;;3.85;100.00
41624;BME280;27319;50.306;18.926;2023-04-07T17:44:34;98128.38;;;3.82;100.00
41624;BME280;27319;50.306;18.926;2023-04-07T17:47:35;98118.41;;;3.95;100.00
41624;BME280;27319;50.306;18.926;2023-04-07T17:50:36;98127.44;;;3.83;100.00
41624;BME280;27319;50.306;18.926;2023-04-07T17:53:37;98133.56;;;3.84;100.00
41624;BME280;27319;50.306;18.926;2023-04-07T17:56:38;98130.91;;;3.84;100.00
41624;BME280;27319;50.306;18.926;2023-04-07T17:59:40;98139.84;;;3.83;100.00
41624;BME280;27319;50.306;18.926;2023-04-07T18:02:40;98138.88;;;3.84;100.00
41624;BME280;27319;50.306;18.926;2023-04-07T18:05:43;98136.22;;;3.84;100.00
41624;BME280;27319;50.306;18.926;2023-04-07T18:08:45;98138.50;;;3.88;100.00
41624;BME280;27319;50.306;18.926;2023-04-07T18:11:47;98149.59;;;3.82;100.00
41624;BME280;27319;50.306;18.926;2023-04-07T18:14:48;98153.97;;;3.83;100.00
41624;BME280;27319;50.306;18.926;2023-04-07T18:17:50;98157.31;;;3.85;100.00
41624;BME280;27319;50.306;18.926;2023-04-07T18:20:52;98153.56;;;3.88;100.00
41624;BME280;27319;50.306;18.926;2023-04-07T18:23:53;98159.47;;;3.91;100.00
41624;BME280;27319;50.306;18.926;2023-04-07T18:30:32;98170.09;;;3.91;100.00
41624;BME280;27319;50.306;18.926;2023-04-07T18:34:33;98171.50;;;3.95;100.00
41624;BME280;27319;50.306;18.926;2023-04-07T18:38:34;98175.84;;;3.96;100.00
41624;BME280;27319;50.306;18.926;2023-04-07T18:42:35;98180.97;;;3.88;100.00
41624;BME280;27319;50.306;18.926;2023-04-07T18:46:39;98173.72;;;3.90;100.00
41624;BME280;27319;50.306;18.926;2023-04-07T18:50:41;98173.59;;;3.92;100.00
41624;BME280;27319;50.306;18.926;2023-04-07T18:54:43;98181.03;;;3.98;100.00
41624;BME280;27319;50.306;18.926;2023-04-07T18:58:44;98176.44;;;4.00;100.00
41624;BME280;27319;50.306;18.926;2023-04-07T19:02:46;98182.72;;;3.99;100.00
41624;BME280;27319;50.306;18.926;2023-04-07T19:06:50;98181.88;;;3.98;100.00
41624;BME280;27319;50.306;18.926;2023-04-07T19:10:51;98186.06;;;4.01;100.00
41624;BME280;27319;50.306;18.926;2023-04-07T19:14:52;98189.47;;;4.03;100.00
41624;BME280;27319;50.306;18.926;2023-04-07T19:18:53;98190.81;;;3.97;100.00
41624;BME280;27319;50.306;18.926;2023-04-07T19:22:54;98186.94;;;4.01;100.00
41624;BME280;27319;50.306;18.926;2023-04-07T19:26:55;98184.75;;;4.06;100.00
41624;BME280;27319;50.306;18.926;2023-04-07T19:30:17;98186.41;;;4.07;100.00
41624;BME280;27319;50.306;18.926;2023-04-07T19:33:37;98186.19;;;3.99;100.00
41624;BME280;27319;50.306;18.926;2023-04-07T19:37:38;98184.41;;;4.00;100.00
41624;BME280;27319;50.306;18.926;2023-04-07T19:41:39;98181.63;;;4.01;100.00
41624;BME280;27319;50.306;18.926;2023-04-07T19:45:40;98189.19;;;4.06;100.00
41624;BME280;27319;50.306;18.926;2023-04-07T19:49:41;98183.88;;;4.06;100.00